Time;durP1;ratioP1;P1;durP2;ratioP2;P2;SDS_P1;SDS_P2;PMS_P1;PMS_P2;Temp;Humidity;BMP_temperature;BMP_pressure;BME280_temperature;BME280_humidity;BME280_pressure;Samples;Min_cycle;Max_cycle;Signal;HPM_P1;HPM_P2
2023/06/11 00:01:23;;;;;;;17.17;12.45;;;18.90;99.90;;;;;;4978745;28;88478;-34
2023/06/11 00:03:52;;;;;;;16.40;11.82;;;18.90;99.90;;;;;;4978404;28;90472;-35
2023/06/11 00:06:22;;;;;;;13.30;12.05;;;18.90;99.90;;;;;;4978613;28;89561;-34
2023/06/11 00:08:52;;;;;;;14.10;12.63;;;19.00;99.90;;;;;;4966065;28;89495;-34
2023/06/11 00:11:18;;;;;;;15.07;11.82;;;19.10;99.90;;;;;;4978103;28;88475;-32
2023/06/11 00:13:44;;;;;;;13.63;12.27;;;19.00;99.90;;;;;;4979753;28;90362;-32
2023/06/11 00:16:12;;;;;;;14.05;12.65;;;19.00;99.90;;;;;;4978236;28;91119;-32
2023/06/11 00:18:40;;;;;;;14.45;12.35;;;19.00;99.90;;;;;;4978553;28;90108;-32
2023/06/11 00:21:07;;;;;;;14.25;12.77;;;19.10;99.90;;;;;;4978630;28;89687;-37
2023/06/11 00:23:36;;;;;;;14.17;12.67;;;19.10;99.90;;;;;;4979278;28;89709;-33
2023/06/11 00:26:05;;;;;;;13.05;11.85;;;19.10;99.90;;;;;;4978958;28;89790;-35
2023/06/11 00:28:31;;;;;;;12.93;11.73;;;19.20;99.90;;;;;;4979762;28;89924;-33
2023/06/11 00:30:57;;;;;;;13.70;12.32;;;19.30;99.90;;;;;;4978241;28;90070;-34
2023/06/11 00:33:23;;;;;;;13.60;12.20;;;19.30;99.90;;;;;;4978916;28;88920;-33
2023/06/11 00:35:48;;;;;;;13.10;11.75;;;19.20;99.90;;;;;;4979113;28;88569;-35
2023/06/11 00:38:15;;;;;;;13.25;12.02;;;19.10;99.90;;;;;;4979541;28;90033;-37
2023/06/11 00:40:41;;;;;;;13.25;11.10;;;19.10;99.90;;;;;;4978493;28;90518;-35
2023/06/11 00:43:07;;;;;;;12.48;11.38;;;19.10;99.90;;;;;;4978235;28;90116;-34
2023/06/11 00:45:34;;;;;;;13.32;12.07;;;19.20;99.90;;;;;;4978745;28;89862;-34
2023/06/11 00:48:01;;;;;;;13.18;11.60;;;19.10;99.90;;;;;;4979745;28;89689;-35
2023/06/11 00:50:28;;;;;;;16.30;13.18;;;19.10;99.90;;;;;;4980351;28;87662;-35
2023/06/11 00:52:54;;;;;;;13.67;12.50;;;19.20;99.90;;;;;;4978514;28;90131;-37
2023/06/11 00:55:21;;;;;;;14.52;11.73;;;19.10;99.90;;;;;;4978751;28;89640;-33
2023/06/11 00:57:48;;;;;;;15.80;12.40;;;19.10;99.90;;;;;;4978441;28;88191;-34
2023/06/11 01:00:14;;;;;;;13.20;11.90;;;19.00;99.90;;;;;;4979455;28;89802;-35
2023/06/11 01:02:57;;;;;;;13.15;11.88;;;19.00;99.90;;;;;;4980235;28;88765;-34
2023/06/11 01:05:25;;;;;;;13.85;12.43;;;19.00;99.90;;;;;;4959043;28;89586;-34
2023/06/11 01:07:55;;;;;;;13.10;11.80;;;19.00;99.90;;;;;;4978243;28;90963;-37
2023/06/11 01:10:21;;;;;;;12.77;11.60;;;19.00;99.90;;;;;;4978091;28;88231;-35
2023/06/11 01:12:48;;;;;;;13.57;12.35;;;19.00;99.90;;;;;;4979038;28;89457;-32
2023/06/11 01:15:14;;;;;;;13.10;11.95;;;19.00;99.90;;;;;;4978061;28;89036;-35
2023/06/11 01:17:50;;;;;;;12.38;11.27;;;18.90;99.90;;;;;;4977927;28;89692;-37
2023/06/11 01:20:19;;;;;;;12.38;11.07;;;18.90;99.90;;;;;;4966866;28;90138;-32
2023/06/11 01:22:49;;;;;;;12.88;11.68;;;18.90;99.90;;;;;;4978180;28;90256;-34
2023/06/11 01:25:29;;;;;;;12.13;11.00;;;18.80;99.90;;;;;;4983256;28;91020;-33
2023/06/11 01:28:00;;;;;;;13.07;11.77;;;18.70;99.90;;;;;;4977722;28;89319;-34
2023/06/11 01:30:28;;;;;;;15.65;12.05;;;18.70;99.90;;;;;;4977750;28;89723;-32
2023/06/11 01:32:56;;;;;;;13.55;12.15;;;18.70;99.90;;;;;;4978126;28;89687;-33
2023/06/11 01:35:22;;;;;;;13.50;12.32;;;18.70;99.90;;;;;;4984802;28;89655;-34
2023/06/11 01:37:55;;;;;;;14.00;12.48;;;18.70;99.90;;;;;;4969521;28;88469;-34
2023/06/11 01:40:26;;;;;;;14.68;12.90;;;18.70;99.90;;;;;;4978066;28;89179;-36
2023/06/11 01:42:52;;;;;;;14.80;12.15;;;18.70;99.90;;;;;;4978232;28;90385;-34
2023/06/11 01:45:18;;;;;;;14.30;12.70;;;18.70;99.90;;;;;;4977268;28;89707;-34
2023/06/11 01:47:44;;;;;;;13.48;12.18;;;18.70;99.90;;;;;;4978042;28;89193;-33
2023/06/11 01:50:13;;;;;;;12.70;11.60;;;18.60;99.90;;;;;;4976802;28;89842;-34
2023/06/11 01:52:39;;;;;;;12.90;11.73;;;18.50;99.90;;;;;;4978396;28;90206;-33
2023/06/11 01:55:06;;;;;;;13.75;12.48;;;18.40;99.90;;;;;;4976865;28;90381;-36
2023/06/11 01:57:32;;;;;;;13.93;12.63;;;18.30;99.90;;;;;;4978447;28;89467;-36
2023/06/11 01:59:58;;;;;;;13.52;12.23;;;18.30;99.90;;;;;;4977589;28;88378;-33
2023/06/11 02:02:26;;;;;;;17.60;13.05;;;18.30;99.90;;;;;;4976445;28;90239;-34
2023/06/11 02:04:52;;;;;;;15.23;12.98;;;18.20;99.90;;;;;;4978024;28;89867;-35
2023/06/11 02:07:17;;;;;;;14.02;12.73;;;18.30;99.90;;;;;;4977498;28;90046;-36
2023/06/11 02:09:43;;;;;;;13.80;12.57;;;18.20;99.90;;;;;;4977692;28;89035;-36
2023/06/11 02:12:08;;;;;;;13.98;12.55;;;18.20;99.90;;;;;;4977071;28;89870;-34
2023/06/11 02:14:34;;;;;;;14.00;12.77;;;18.20;99.90;;;;;;4976816;28;89813;-35
2023/06/11 02:17:00;;;;;;;13.20;11.95;;;18.20;99.90;;;;;;4980024;28;89703;-36
2023/06/11 02:19:25;;;;;;;15.20;13.88;;;18.20;99.90;;;;;;4979941;28;90563;-33
2023/06/11 02:21:51;;;;;;;13.63;12.35;;;18.20;99.90;;;;;;4980741;28;90105;-36
2023/06/11 02:24:16;;;;;;;14.38;12.98;;;18.20;99.90;;;;;;4980316;28;89778;-35
2023/06/11 02:26:42;;;;;;;14.82;13.27;;;18.20;99.90;;;;;;4980221;28;89442;-36
2023/06/11 02:29:07;;;;;;;16.05;13.43;;;18.20;99.90;;;;;;4980946;28;89294;-34
2023/06/11 02:31:33;;;;;;;16.52;14.88;;;18.10;99.90;;;;;;4980560;28;89708;-36
2023/06/11 02:33:59;;;;;;;18.27;14.20;;;18.10;99.90;;;;;;4980987;28;89019;-33
2023/06/11 02:36:24;;;;;;;17.98;14.32;;;18.20;99.90;;;;;;4979736;28;89321;-33
2023/06/11 02:38:50;;;;;;;14.13;12.75;;;18.20;99.90;;;;;;4980872;28;89012;-36
2023/06/11 02:41:15;;;;;;;15.50;14.10;;;18.10;99.90;;;;;;4979727;28;89083;-36
2023/06/11 02:43:41;;;;;;;21.20;14.68;;;18.10;99.90;;;;;;4979667;28;89659;-36
2023/06/11 02:46:07;;;;;;;16.80;14.35;;;18.10;99.90;;;;;;4992924;28;91434;-33
2023/06/11 02:48:33;;;;;;;14.95;13.55;;;18.10;99.90;;;;;;4980081;28;88524;-36
2023/06/11 02:50:58;;;;;;;16.00;14.57;;;18.10;99.90;;;;;;4980752;28;90400;-37
2023/06/11 02:53:24;;;;;;;15.57;14.10;;;18.00;99.90;;;;;;4979411;28;89741;-35
2023/06/11 02:55:49;;;;;;;14.40;13.20;;;17.90;99.90;;;;;;4981077;28;90129;-35
2023/06/11 02:58:15;;;;;;;17.75;16.05;;;18.00;99.90;;;;;;4979202;28;88996;-33
2023/06/11 03:00:41;;;;;;;16.48;14.88;;;17.90;99.90;;;;;;4980042;28;90278;-34
2023/06/11 03:03:06;;;;;;;15.70;14.20;;;17.90;99.90;;;;;;4979307;28;90301;-37
2023/06/11 03:05:32;;;;;;;17.48;14.73;;;18.00;99.90;;;;;;4980388;28;89218;-34
2023/06/11 03:07:57;;;;;;;16.25;14.57;;;17.90;99.90;;;;;;4977990;28;89071;-36
2023/06/11 03:10:27;;;;;;;17.70;16.10;;;17.80;99.90;;;;;;4979078;28;89921;-36
2023/06/11 03:12:56;;;;;;;18.77;16.70;;;17.80;99.90;;;;;;4985595;28;89854;-35
2023/06/11 03:15:21;;;;;;;16.63;15.13;;;17.80;99.90;;;;;;4979295;28;89531;-34
2023/06/11 03:17:47;;;;;;;16.70;15.10;;;17.80;99.90;;;;;;4980378;28;89474;-31
2023/06/11 03:20:13;;;;;;;18.30;16.52;;;17.80;99.90;;;;;;4979288;28;90515;-36
2023/06/11 03:22:39;;;;;;;17.20;15.55;;;17.70;99.90;;;;;;4980082;28;89348;-37
2023/06/11 03:25:05;;;;;;;17.10;15.52;;;17.80;99.90;;;;;;4980326;28;89765;-34
2023/06/11 03:27:30;;;;;;;19.48;16.52;;;17.70;99.90;;;;;;4978588;28;88676;-33
2023/06/11 03:29:56;;;;;;;19.23;16.15;;;17.60;99.90;;;;;;4980271;28;90275;-37
2023/06/11 03:32:22;;;;;;;19.02;17.23;;;17.50;99.90;;;;;;4977906;28;90480;-35
2023/06/11 03:34:51;;;;;;;18.85;16.98;;;17.60;99.90;;;;;;4979988;28;90577;-37
2023/06/11 03:37:17;;;;;;;18.42;16.45;;;17.60;99.90;;;;;;4979963;28;89005;-36
2023/06/11 03:39:43;;;;;;;17.17;15.48;;;17.50;99.90;;;;;;4979735;28;90895;-33
2023/06/11 03:42:09;;;;;;;17.52;15.82;;;17.50;99.90;;;;;;4979336;28;89552;-32
2023/06/11 03:44:35;;;;;;;18.27;16.55;;;17.60;99.90;;;;;;4979777;28;89517;-33
2023/06/11 03:47:01;;;;;;;17.08;15.48;;;17.50;99.90;;;;;;4979025;28;88224;-36
2023/06/11 03:49:26;;;;;;;17.45;15.75;;;17.50;99.90;;;;;;4979606;28;90612;-31
2023/06/11 03:51:52;;;;;;;18.42;16.70;;;17.50;99.90;;;;;;4979620;28;90264;-32
2023/06/11 03:54:17;;;;;;;19.27;17.33;;;17.50;99.90;;;;;;4979836;28;89846;-33
2023/06/11 03:56:43;;;;;;;18.08;16.38;;;17.60;99.90;;;;;;4978907;28;89147;-34
2023/06/11 03:59:08;;;;;;;15.90;14.27;;;17.60;99.90;;;;;;4978638;28;90199;-36
2023/06/11 04:01:34;;;;;;;18.25;16.08;;;17.60;99.90;;;;;;4979258;28;89629;-34
2023/06/11 04:04:00;;;;;;;19.00;17.05;;;17.60;99.90;;;;;;4978893;28;89491;-34
2023/06/11 04:06:27;;;;;;;18.88;16.58;;;17.70;99.90;;;;;;4979440;28;88267;-35
2023/06/11 04:08:53;;;;;;;18.43;16.63;;;17.70;99.90;;;;;;4991899;28;90487;-33
2023/06/11 04:11:19;;;;;;;17.85;16.15;;;17.80;99.90;;;;;;4978357;28;89341;-32
2023/06/11 04:13:49;;;;;;;20.10;16.17;;;17.80;99.90;;;;;;4979618;28;90410;-33
2023/06/11 04:16:18;;;;;;;18.95;17.05;;;17.80;99.90;;;;;;4978780;28;88821;-32
2023/06/11 04:18:44;;;;;;;18.30;16.25;;;17.80;99.90;;;;;;4979014;28;89925;-34
2023/06/11 04:21:09;;;;;;;20.10;18.25;;;17.90;99.90;;;;;;4977737;28;91004;-36
2023/06/11 04:23:36;;;;;;;17.10;15.35;;;17.90;99.90;;;;;;4990243;28;91451;-34
2023/06/11 04:26:02;;;;;;;20.67;18.58;;;17.90;99.90;;;;;;4979388;28;88049;-35
2023/06/11 04:28:28;;;;;;;17.88;16.17;;;18.00;99.90;;;;;;5025759;22;90182;-36
2023/06/11 04:30:57;;;;;;;20.42;16.58;;;18.00;99.90;;;;;;4998845;28;89241;-35
2023/06/11 04:33:32;;;;;;;19.67;17.70;;;18.20;99.90;;;;;;4999120;28;89143;-32
2023/06/11 04:36:04;;;;;;;18.15;16.45;;;18.20;99.90;;;;;;4998640;28;88121;-35
2023/06/11 04:38:30;;;;;;;19.38;17.35;;;18.30;99.90;;;;;;4998447;28;90432;-33
2023/06/11 04:40:57;;;;;;;18.30;16.48;;;18.50;99.90;;;;;;4998526;28;89668;-33
2023/06/11 04:43:23;;;;;;;19.27;17.10;;;18.50;99.90;;;;;;4998576;28;89769;-35
2023/06/11 04:45:58;;;;;;;19.83;17.85;;;18.70;99.90;;;;;;4998572;28;89994;-33
2023/06/11 04:48:24;;;;;;;21.83;17.67;;;18.80;99.90;;;;;;4998022;28;90475;-33
2023/06/11 04:50:51;;;;;;;20.83;17.33;;;18.90;99.90;;;;;;4998262;28;90302;-35
2023/06/11 04:53:21;;;;;;;17.80;15.98;;;19.00;99.90;;;;;;4997847;28;89533;-35
2023/06/11 04:55:54;;;;;;;18.20;16.40;;;19.20;99.90;;;;;;4998867;28;89796;-34
2023/06/11 04:58:21;;;;;;;17.05;15.57;;;19.20;99.90;;;;;;4997556;28;89781;-37
2023/06/11 05:00:51;;;;;;;17.88;15.77;;;19.30;99.90;;;;;;4999133;28;89763;-33
2023/06/11 05:03:18;;;;;;;17.73;16.02;;;19.40;99.90;;;;;;4998564;28;88653;-34
2023/06/11 05:05:51;;;;;;;18.80;16.70;;;19.50;99.90;;;;;;4997837;28;89292;-34
2023/06/11 05:08:25;;;;;;;18.85;17.00;;;19.60;99.90;;;;;;4998325;28;90351;-33
2023/06/11 05:10:51;;;;;;;18.63;16.83;;;19.70;99.90;;;;;;4997587;28;89328;-32
2023/06/11 05:13:24;;;;;;;19.75;17.65;;;19.80;99.90;;;;;;4998297;28;90134;-34
2023/06/11 05:15:57;;;;;;;17.52;15.98;;;19.90;99.90;;;;;;4997914;28;88898;-32
2023/06/11 05:18:25;;;;;;;18.70;16.80;;;20.00;99.90;;;;;;4996198;28;91390;-33
2023/06/11 05:20:51;;;;;;;18.20;16.30;;;20.10;99.90;;;;;;5000236;28;90364;-35
2023/06/11 05:23:18;;;;;;;19.98;16.73;;;20.20;99.90;;;;;;4998699;28;89338;-35
2023/06/11 05:25:47;;;;;;;16.45;14.93;;;20.20;99.90;;;;;;4998851;28;88351;-36
2023/06/11 05:28:14;;;;;;;18.48;16.70;;;20.40;99.90;;;;;;4996979;28;90264;-33
2023/06/11 05:30:45;;;;;;;20.42;18.58;;;20.60;99.90;;;;;;5007121;28;89776;-33
2023/06/11 05:33:12;;;;;;;19.42;16.98;;;20.70;99.90;;;;;;4990722;28;90916;-32
2023/06/11 05:35:39;;;;;;;17.77;16.03;;;20.80;99.90;;;;;;5003217;28;89686;-33
2023/06/11 05:38:06;;;;;;;22.58;16.60;;;20.80;99.90;;;;;;4998379;28;90868;-34
2023/06/11 05:40:32;;;;;;;16.83;15.32;;;20.90;99.90;;;;;;4997865;28;90241;-32
2023/06/11 05:42:57;;;;;;;16.88;15.18;;;20.90;99.90;;;;;;4997453;28;90043;-35
2023/06/11 05:45:25;;;;;;;17.67;15.88;;;21.00;99.90;;;;;;4997668;28;89802;-32
2023/06/11 05:47:50;;;;;;;19.13;16.02;;;21.20;99.90;;;;;;5004865;28;90296;-34
2023/06/11 05:50:16;;;;;;;16.83;15.05;;;21.40;99.90;;;;;;4983982;28;89632;-32
2023/06/11 05:52:41;;;;;;;17.77;15.68;;;21.40;99.90;;;;;;5000701;28;89285;-32
2023/06/11 05:55:07;;;;;;;18.05;16.15;;;21.50;99.90;;;;;;5013808;28;89260;-34
2023/06/11 05:57:33;;;;;;;16.17;14.55;;;21.60;99.90;;;;;;4998134;28;90582;-36
2023/06/11 05:59:58;;;;;;;17.20;15.45;;;21.70;99.90;;;;;;5017806;28;91137;-35
2023/06/11 06:02:24;;;;;;;17.83;15.82;;;21.90;99.90;;;;;;5000700;28;89894;-37
2023/06/11 06:04:50;;;;;;;17.20;15.57;;;22.00;99.90;;;;;;5001295;28;88441;-34
2023/06/11 06:07:16;;;;;;;15.15;13.75;;;22.30;99.90;;;;;;5000769;28;90010;-35
2023/06/11 06:09:42;;;;;;;16.75;15.02;;;22.30;99.90;;;;;;5001234;28;89275;-36
2023/06/11 06:12:08;;;;;;;15.80;14.40;;;22.40;99.90;;;;;;5000780;28;90323;-34
2023/06/11 06:14:34;;;;;;;17.05;15.07;;;22.50;99.90;;;;;;5000338;28;88166;-34
2023/06/11 06:17:00;;;;;;;16.38;14.68;;;22.50;99.90;;;;;;5002012;28;90508;-33
2023/06/11 06:19:26;;;;;;;15.85;14.32;;;22.50;99.90;;;;;;5000464;28;89120;-33
2023/06/11 06:21:51;;;;;;;19.20;14.68;;;22.70;99.90;;;;;;5001331;28;89612;-37
2023/06/11 06:24:17;;;;;;;16.27;14.45;;;22.80;99.90;;;;;;5000626;28;89086;-38
2023/06/11 06:26:43;;;;;;;16.27;14.73;;;23.10;99.90;;;;;;5000780;28;90323;-35
2023/06/11 06:29:12;;;;;;;20.30;14.93;;;23.00;99.90;;;;;;5000375;28;89944;-35
2023/06/11 06:31:41;;;;;;;16.98;14.80;;;23.20;99.90;;;;;;5000752;28;89763;-35
2023/06/11 06:34:07;;;;;;;17.75;15.88;;;23.40;99.90;;;;;;5000111;28;88992;-36
2023/06/11 06:36:33;;;;;;;15.18;13.70;;;23.60;99.90;;;;;;4999768;28;88933;-35
2023/06/11 06:39:01;;;;;;;15.77;13.70;;;23.90;99.90;;;;;;4990757;28;89637;-36
2023/06/11 06:41:26;;;;;;;15.70;14.20;;;24.30;99.90;;;;;;5000000;28;90361;-33
2023/06/11 06:43:52;;;;;;;15.05;13.75;;;24.20;99.90;;;;;;4999162;28;88465;-32
2023/06/11 06:46:17;;;;;;;16.35;14.65;;;24.40;99.90;;;;;;4998487;28;90293;-36
2023/06/11 06:48:43;;;;;;;14.07;12.77;;;24.40;99.90;;;;;;4998400;28;90563;-35
2023/06/11 06:51:09;;;;;;;14.95;13.38;;;24.30;99.90;;;;;;5000236;28;90522;-34
2023/06/11 06:53:34;;;;;;;15.82;14.18;;;24.60;99.90;;;;;;4999768;28;88954;-35
2023/06/11 06:56:00;;;;;;;13.65;12.55;;;24.70;99.90;;;;;;4999841;28;89946;-33
2023/06/11 06:58:29;;;;;;;17.77;15.90;;;24.80;99.90;;;;;;4999482;28;89666;-34
2023/06/11 07:00:55;;;;;;;13.77;12.57;;;24.90;99.90;;;;;;4999542;28;89853;-31
2023/06/11 07:03:21;;;;;;;15.65;12.63;;;25.20;99.90;;;;;;4999196;28;89058;-36
2023/06/11 07:05:47;;;;;;;17.02;13.75;;;25.30;99.90;;;;;;5000315;28;90069;-35
2023/06/11 07:08:13;;;;;;;16.45;14.50;;;25.30;92.90;;;;;;4998893;28;88888;-34
2023/06/11 07:10:49;;;;;;;14.32;12.93;;;25.60;94.50;;;;;;4999413;28;89540;-34
2023/06/11 07:13:15;;;;;;;16.02;14.70;;;25.90;95.40;;;;;;4998993;28;91029;-34
2023/06/11 07:15:41;;;;;;;15.32;13.93;;;26.20;91.50;;;;;;4999369;28;90166;-35
2023/06/11 07:18:06;;;;;;;15.43;14.02;;;26.00;86.10;;;;;;4999091;28;89941;-37
2023/06/11 07:20:32;;;;;;;14.90;13.02;;;26.10;83.40;;;;;;4999374;28;89502;-33
2023/06/11 07:22:59;;;;;;;14.60;13.40;;;26.40;84.60;;;;;;4999582;28;90426;-34
2023/06/11 07:25:28;;;;;;;14.32;12.65;;;26.30;80.40;;;;;;4998980;28;90438;-34
2023/06/11 07:28:01;;;;;;;14.48;13.18;;;26.20;81.50;;;;;;4998857;28;89255;-36
2023/06/11 07:30:30;;;;;;;15.85;14.50;;;26.80;79.10;;;;;;4998693;28;89737;-33
2023/06/11 07:32:56;;;;;;;16.88;13.82;;;26.80;74.40;;;;;;4998853;28;89257;-33
2023/06/11 07:35:22;;;;;;;14.70;13.30;;;26.90;75.10;;;;;;4999370;28;90147;-34
2023/06/11 07:37:48;;;;;;;15.32;13.02;;;27.10;74.60;;;;;;4998273;28;91033;-34
2023/06/11 07:40:15;;;;;;;15.10;12.40;;;27.40;74.50;;;;;;4998820;28;90171;-37
2023/06/11 07:42:42;;;;;;;14.43;13.02;;;27.50;71.10;;;;;;4998865;28;89026;-36
2023/06/11 07:45:08;;;;;;;13.57;12.38;;;27.30;70.10;;;;;;4998665;28;90222;-34
2023/06/11 07:47:33;;;;;;;14.75;13.35;;;27.40;70.50;;;;;;4998750;28;89716;-36
2023/06/11 07:49:59;;;;;;;13.35;11.98;;;27.70;71.10;;;;;;4998917;28;91159;-36
2023/06/11 07:52:25;;;;;;;13.88;12.68;;;27.70;70.60;;;;;;4998674;28;88415;-33
2023/06/11 07:54:51;;;;;;;15.65;12.93;;;27.80;68.90;;;;;;4999267;28;90259;-32
2023/06/11 07:57:17;;;;;;;13.32;12.02;;;28.00;68.10;;;;;;4997889;28;89508;-33
2023/06/11 07:59:43;;;;;;;14.02;12.82;;;27.70;68.90;;;;;;4998824;28;90252;-34
2023/06/11 08:02:10;;;;;;;13.77;12.48;;;27.90;69.30;;;;;;4997723;28;89815;-34
2023/06/11 08:04:36;;;;;;;17.70;13.00;;;27.90;68.80;;;;;;4998758;28;90114;-33
2023/06/11 08:07:03;;;;;;;13.70;12.50;;;28.00;69.00;;;;;;4998356;28;89535;-37
2023/06/11 08:09:29;;;;;;;14.00;12.83;;;28.30;68.40;;;;;;4998352;28;89795;-33
2023/06/11 08:11:56;;;;;;;14.60;13.32;;;28.40;68.10;;;;;;4999617;28;88995;-34
2023/06/11 08:14:22;;;;;;;14.85;12.88;;;28.00;68.70;;;;;;4997443;28;88918;-37
2023/06/11 08:16:47;;;;;;;13.93;12.50;;;27.90;66.90;;;;;;4997483;28;90074;-35
2023/06/11 08:19:13;;;;;;;14.57;12.45;;;28.00;67.80;;;;;;4998799;28;89728;-33
2023/06/11 08:21:40;;;;;;;16.23;13.18;;;28.30;67.70;;;;;;4998853;28;88890;-36
2023/06/11 08:24:07;;;;;;;14.07;12.80;;;28.50;67.80;;;;;;4998152;28;90355;-36
2023/06/11 08:26:32;;;;;;;12.18;11.18;;;28.30;65.50;;;;;;4997799;28;90738;-36
2023/06/11 08:28:58;;;;;;;12.98;11.93;;;28.40;67.70;;;;;;4997753;28;90823;-33
2023/06/11 08:31:24;;;;;;;12.98;11.82;;;28.50;67.20;;;;;;4997915;28;87669;-35
2023/06/11 08:33:50;;;;;;;13.73;12.52;;;28.40;67.30;;;;;;4998136;28;90318;-37
2023/06/11 08:36:16;;;;;;;14.82;13.32;;;28.40;68.50;;;;;;4998126;28;90215;-33
2023/06/11 08:38:43;;;;;;;12.02;10.95;;;28.90;69.40;;;;;;4997650;28;89370;-35
2023/06/11 08:41:08;;;;;;;13.95;12.93;;;29.20;67.20;;;;;;4998802;28;88933;-34
2023/06/11 08:43:34;;;;;;;12.90;11.77;;;29.50;65.10;;;;;;4998090;28;90002;-37
2023/06/11 08:46:00;;;;;;;14.18;11.65;;;29.70;65.20;;;;;;4998406;28;89814;-35
2023/06/11 08:48:29;;;;;;;12.20;11.10;;;29.70;66.10;;;;;;4997629;28;89599;-36
2023/06/11 08:50:55;;;;;;;12.55;11.40;;;29.60;64.60;;;;;;4985082;28;90233;-36
2023/06/11 08:53:21;;;;;;;14.80;13.43;;;29.50;65.90;;;;;;4997507;28;90238;-37
2023/06/11 08:55:48;;;;;;;13.02;11.82;;;29.60;64.10;;;;;;4998367;28;90116;-34
2023/06/11 08:58:15;;;;;;;12.80;11.70;;;29.80;64.60;;;;;;4995800;28;90060;-34
2023/06/11 09:00:41;;;;;;;12.63;11.53;;;29.90;64.40;;;;;;4997667;28;90329;-36
2023/06/11 09:03:08;;;;;;;12.25;11.25;;;30.10;64.20;;;;;;4997744;28;90681;-35
2023/06/11 09:05:35;;;;;;;11.77;10.77;;;29.80;63.40;;;;;;4996625;28;91908;-36
2023/06/11 09:08:06;;;;;;;11.43;10.50;;;29.70;63.30;;;;;;4997761;28;88656;-35
2023/06/11 09:10:32;;;;;;;12.93;11.70;;;29.80;64.00;;;;;;4997418;28;88166;-34
2023/06/11 09:12:59;;;;;;;12.43;11.27;;;29.90;64.20;;;;;;4997294;28;90245;-35
2023/06/11 09:15:25;;;;;;;11.57;10.63;;;30.00;64.80;;;;;;4996728;28;90246;-33
2023/06/11 09:17:51;;;;;;;13.13;11.95;;;29.80;63.70;;;;;;4996399;28;90522;-33
2023/06/11 09:20:18;;;;;;;11.70;10.70;;;29.60;62.40;;;;;;4997350;28;89818;-37
2023/06/11 09:22:45;;;;;;;12.93;11.55;;;29.50;63.20;;;;;;4997023;28;90543;-35
2023/06/11 09:25:17;;;;;;;12.93;11.93;;;29.60;65.20;;;;;;4997856;28;89439;-36
2023/06/11 09:27:45;;;;;;;12.05;11.15;;;29.80;63.80;;;;;;5000327;28;90952;-33
2023/06/11 09:30:17;;;;;;;13.02;11.73;;;29.70;63.20;;;;;;5000905;28;89905;-36
2023/06/11 09:32:45;;;;;;;11.80;10.52;;;29.70;63.70;;;;;;5000820;28;89673;-34
2023/06/11 09:35:11;;;;;;;;;;;30.10;63.60;;;;;;5000732;28;90550;-36
2023/06/11 09:37:41;;;;;;;10.23;9.43;;;30.40;62.20;;;;;;5001610;28;89867;-34
2023/06/11 09:40:10;;;;;;;12.55;11.55;;;29.90;62.00;;;;;;5001375;28;90728;-36
2023/06/11 09:42:37;;;;;;;11.95;10.70;;;30.20;62.50;;;;;;5000313;28;90824;-39
2023/06/11 09:45:02;;;;;;;13.00;10.13;;;30.40;61.60;;;;;;5001204;28;90394;-36
2023/06/11 09:47:30;;;;;;;11.63;10.63;;;30.30;62.70;;;;;;4999821;28;89403;-37
2023/06/11 09:49:58;;;;;;;11.57;10.73;;;30.10;60.60;;;;;;5000161;28;88191;-36
2023/06/11 09:52:24;;;;;;;;;;;30.20;62.20;;;;;;5001251;28;90165;-33
2023/06/11 09:54:51;;;;;;;12.05;11.05;;;29.90;61.90;;;;;;5002501;28;89593;-36
2023/06/11 09:57:17;;;;;;;12.68;10.85;;;30.00;62.20;;;;;;4999609;28;89926;-35
2023/06/11 09:59:45;;;;;;;11.73;10.63;;;30.00;60.50;;;;;;5000111;28;90132;-34
2023/06/11 10:02:11;;;;;;;;;;;29.70;60.30;;;;;;5000455;28;90386;-34
2023/06/11 10:04:37;;;;;;;13.02;11.38;;;29.60;62.00;;;;;;5001663;28;90383;-36
2023/06/11 10:07:04;;;;;;;11.30;10.30;;;29.90;62.30;;;;;;5000387;28;89165;-37
2023/06/11 10:09:32;;;;;;;11.98;10.95;;;30.00;62.20;;;;;;4999946;28;89106;-36
2023/06/11 10:11:58;;;;;;;12.30;11.05;;;30.10;61.20;;;;;;4999783;28;89855;-35
2023/06/11 10:14:24;;;;;;;11.98;10.95;;;30.20;61.80;;;;;;4999671;28;90773;-36
2023/06/11 10:16:51;;;;;;;10.77;9.75;;;30.10;59.40;;;;;;4999441;28;89593;-37
2023/06/11 10:19:17;;;;;;;11.47;10.43;;;30.10;60.90;;;;;;5013940;28;88904;-36
2023/06/11 10:21:49;;;;;;;11.52;10.70;;;30.00;60.70;;;;;;5006091;28;90109;-38
2023/06/11 10:24:24;;;;;;;10.38;9.57;;;29.80;57.90;;;;;;4989419;28;89226;-36
2023/06/11 10:27:07;;;;;;;10.10;9.10;;;29.60;57.90;;;;;;5011959;28;89957;-38
2023/06/11 10:29:41;;;;;;;10.05;9.15;;;29.80;59.50;;;;;;4958483;28;89475;-35
2023/06/11 10:32:20;;;;;;;10.88;9.98;;;30.00;59.40;;;;;;4980799;28;90218;-35
2023/06/11 10:34:57;;;;;;;10.45;9.40;;;30.00;58.70;;;;;;4980017;28;89892;-37
2023/06/11 10:37:29;;;;;;;10.55;9.45;;;30.20;58.90;;;;;;4983814;28;91206;-34
2023/06/11 10:39:55;;;;;;;11.27;10.15;;;30.30;58.10;;;;;;4980548;28;88741;-35
2023/06/11 10:42:26;;;;;;;14.70;9.90;;;29.80;59.40;;;;;;4979098;28;90761;-33
2023/06/11 10:44:58;;;;;;;10.02;9.27;;;30.10;59.20;;;;;;4980416;28;91823;-36
2023/06/11 10:47:24;;;;;;;12.05;10.38;;;30.10;59.60;;;;;;4980169;28;89403;-34
2023/06/11 10:49:50;;;;;;;11.18;10.27;;;30.00;59.10;;;;;;4980082;28;88614;-35
2023/06/11 10:52:15;;;;;;;10.13;9.32;;;30.00;57.40;;;;;;4979092;28;90418;-34
2023/06/11 10:54:43;;;;;;;10.63;9.68;;;29.90;58.00;;;;;;4979901;28;90737;-32
2023/06/11 10:57:08;;;;;;;16.27;9.65;;;30.00;58.50;;;;;;4979794;28;90541;-34
2023/06/11 10:59:34;;;;;;;9.57;8.68;;;30.20;55.60;;;;;;4980091;28;89762;-36
2023/06/11 11:02:00;;;;;;;9.70;8.70;;;30.30;54.40;;;;;;4980269;28;91954;-36
2023/06/11 11:04:26;;;;;;;10.13;9.25;;;30.00;54.40;;;;;;4979570;28;89309;-33
2023/06/11 11:07:07;;;;;;;9.95;9.05;;;30.20;55.80;;;;;;4980623;28;89620;-33
2023/06/11 11:09:33;;;;;;;10.00;9.27;;;30.40;54.60;;;;;;4980542;28;88816;-33
2023/06/11 11:11:59;;;;;;;9.95;9.10;;;30.30;54.30;;;;;;4981223;28;90442;-32
2023/06/11 11:14:27;;;;;;;9.85;9.05;;;30.20;54.10;;;;;;4978644;28;89392;-32
2023/06/11 11:16:54;;;;;;;9.13;8.20;;;30.30;53.70;;;;;;4980307;28;88906;-37
2023/06/11 11:19:25;;;;;;;14.05;9.63;;;30.40;54.20;;;;;;4979723;28;89672;-36
2023/06/11 11:21:51;;;;;;;10.32;9.05;;;30.40;53.90;;;;;;4980326;28;90316;-34
2023/06/11 11:24:17;;;;;;;11.35;9.23;;;30.50;54.30;;;;;;4979818;28;89953;-34
2023/06/11 11:26:45;;;;;;;10.35;9.35;;;30.40;53.80;;;;;;4979499;28;89239;-37
2023/06/11 11:29:12;;;;;;;10.13;9.27;;;30.40;54.10;;;;;;4998151;28;89235;-34
2023/06/11 11:31:39;;;;;;;11.95;9.40;;;30.50;54.70;;;;;;5000266;28;90104;-37
2023/06/11 11:34:05;;;;;;;9.93;9.13;;;30.30;53.70;;;;;;4999499;28;88872;-36
2023/06/11 11:36:31;;;;;;;10.07;9.18;;;30.20;53.80;;;;;;4999666;28;89492;-34
2023/06/11 11:39:07;;;;;;;9.52;8.73;;;30.10;52.70;;;;;;4999816;28;90175;-35
2023/06/11 11:41:33;;;;;;;10.10;9.10;;;30.10;52.80;;;;;;4999144;28;90197;-35
2023/06/11 11:44:00;;;;;;;10.43;9.05;;;29.90;52.10;;;;;;5000192;28;90545;-34
2023/06/11 11:46:25;;;;;;;9.98;8.93;;;29.90;53.20;;;;;;4998943;28;90005;-34
2023/06/11 11:48:57;;;;;;;11.52;10.48;;;30.10;52.50;;;;;;4998871;28;90185;-33
2023/06/11 11:51:25;;;;;;;10.18;9.32;;;29.90;52.30;;;;;;4998625;28;91748;-35
2023/06/11 11:53:51;;;;;;;9.63;8.93;;;29.80;54.70;;;;;;4998946;28;89685;-33
2023/06/11 11:56:17;;;;;;;10.30;9.27;;;29.80;53.30;;;;;;4981217;28;88967;-36
2023/06/11 11:58:44;;;;;;;9.68;8.90;;;29.90;52.50;;;;;;4999476;28;90387;-35
2023/06/11 12:01:26;;;;;;;10.48;9.55;;;30.00;54.90;;;;;;4999215;28;90709;-37
2023/06/11 12:04:02;;;;;;;12.20;9.57;;;30.00;52.80;;;;;;4986873;28;89734;-36
2023/06/11 12:06:30;;;;;;;9.43;8.63;;;30.10;52.70;;;;;;4998609;28;90342;-33
2023/06/11 12:08:55;;;;;;;9.77;8.88;;;30.10;51.70;;;;;;4999982;28;89933;-33
2023/06/11 12:11:21;;;;;;;9.85;8.95;;;30.20;52.80;;;;;;5000213;28;90476;-36
2023/06/11 12:13:47;;;;;;;9.35;8.57;;;30.40;51.30;;;;;;5005887;28;89681;-35
2023/06/11 12:16:14;;;;;;;11.23;9.25;;;30.40;51.20;;;;;;5009998;28;89539;-35
2023/06/11 12:18:40;;;;;;;10.57;9.67;;;30.30;50.80;;;;;;5014748;28;88133;-34
2023/06/11 12:21:07;;;;;;;9.73;8.90;;;30.40;51.80;;;;;;4997707;28;89282;-37
2023/06/11 12:23:33;;;;;;;11.47;10.23;;;30.40;52.10;;;;;;5004918;28;89797;-35
2023/06/11 12:26:00;;;;;;;10.82;9.82;;;30.40;53.30;;;;;;5009783;28;90721;-36
2023/06/11 12:28:26;;;;;;;9.33;8.53;;;30.30;52.20;;;;;;4990149;28;88708;-35
2023/06/11 12:30:51;;;;;;;10.88;9.90;;;30.20;54.70;;;;;;5007746;28;91013;-36